MSC Sinfonia — H8XH — position and weather

sailwx.info

Track history (hours):
 
Tides and Currents Weather Stations Pressure Air Temp Water Temp Dewpoint Dewpoint Depression Visibility Wind Speed Wind Dir Waves Ship Positions

MSC Sinfonia

Last reported at 2017-Mar-27 17:33 UTC. Time now 2017-Mar-30 04:55 UTC.
Position S 28°56' E 032°18'.

Length 251 m; draft 6.8 m.

Type: Passenger vessel. MMSI: 356715971.

Date/timePositionNaut miles runAvg speedWind from/ knotsBaromVisibWave heightAir tempDewpointWater temp
2017-Mar-27 17:33S 28°56' E 032°18'1916.4
2017-Mar-27 16:24S 29°10' E 032°03'1416.5
2017-Mar-27 15:33S 29°20' E 031°52'1817.9
2017-Mar-27 14:33S 29°32' E 031°37'1918.8
2017-Mar-27 13:33S 29°45' E 031°21'1716.7
2017-Mar-27 12:33S 29°52' E 031°04'1 1.2
2017-Mar-27 11:32S 29°52' E 031°02'0 0.0
2017-Mar-27 10:32S 29°52' E 031°02'0 0.0
2017-Mar-27 09:32S 29°52' E 031°02'0 0.0
2017-Mar-27 08:32S 29°52' E 031°02'0 0.0
2017-Mar-27 07:32S 29°52' E 031°02'0 0.0
2017-Mar-27 06:32S 29°52' E 031°02'0 0.0
2017-Mar-27 05:32S 29°52' E 031°02'0 0.0
2017-Mar-27 04:32S 29°52' E 031°02'0 0.0
2017-Mar-27 03:32S 29°52' E 031°02'2 2.5
2017-Mar-27 02:33S 29°51' E 031°04'9 8.7
2017-Mar-27 01:33S 29°48' E 031°14'8 8.5
2017-Mar-27 00:33S 29°45' E 031°23'10 9.6
2017-Mar-26 23:33S 29°38' E 031°31'10 9.6
2017-Mar-26 22:33S 29°31' E 031°38'10 9.5
2017-Mar-26 21:33S 29°24' E 031°46'22 9.7
2017-Mar-26 19:19S 29°09' E 032°03'810.8
2017-Mar-26 18:33S 29°03' E 032°10'1110.5
2017-Mar-26 17:33S 28°55' E 032°19'14 0.3
2017-Mar-24 18:20S 28°42' E 032°24'1215.5
2017-Mar-24 17:33S 28°54' E 032°19'1515.1
2017-Mar-24 16:33S 29°05' E 032°08'3718.4
2017-Mar-24 14:33S 29°31' E 031°38'1918.7
2017-Mar-24 13:33S 29°44' E 031°23'1616.2
2017-Mar-24 12:33S 29°51' E 031°05'3 3.2
2017-Mar-24 11:33S 29°52' E 031°02'0 0.0
2017-Mar-24 10:33S 29°52' E 031°02'0 0.0
2017-Mar-24 08:30S 29°52' E 031°02'0 0.0
2017-Mar-24 07:33S 29°52' E 031°02'0 0.0
2017-Mar-24 06:30S 29°52' E 031°02'0 0.0
2017-Mar-24 05:33S 29°52' E 031°02'0 0.0
2017-Mar-24 04:33S 29°52' E 031°02'0 0.0
2017-Mar-24 03:27S 29°52' E 031°02'3 3.3
2017-Mar-24 02:33S 29°51' E 031°05'1211.7
2017-Mar-24 01:33S 29°47' E 031°18'1212.4
2017-Mar-24 00:33S 29°40' E 031°29'1615.6
2017-Mar-23 23:33S 29°29' E 031°42'1716.9
2017-Mar-23 22:33S 29°16' E 031°55'1918.7
2017-Mar-23 21:34S 29°03' E 032°10'  
2017-Mar-17 18:22S 28°45' E 032°23'1215.1
2017-Mar-17 17:33S 28°56' E 032°18'  
Track history (hours):
 
Tides and Currents Weather Stations Pressure Air Temp Water Temp Dewpoint Dewpoint Depression Visibility Wind Speed Wind Dir Waves Ship Positions

MSC Sinfonia

Last reported at 2017-Mar-27 17:33 UTC. Time now 2017-Mar-30 04:55 UTC.
Position S 28°56' E 032°18'.

Length 251 m; draft 6.8 m.

Type: Passenger vessel. MMSI: 356715971.

Date/timePositionNaut miles runAvg speedWind from/ knotsBaromVisibWave heightAir tempDewpointWater temp
2017-Mar-27 17:33S 28°56' E 032°18'1916.4
2017-Mar-27 16:24S 29°10' E 032°03'1416.5
2017-Mar-27 15:33S 29°20' E 031°52'1817.9
2017-Mar-27 14:33S 29°32' E 031°37'1918.8
2017-Mar-27 13:33S 29°45' E 031°21'1716.7
2017-Mar-27 12:33S 29°52' E 031°04'1 1.2
2017-Mar-27 11:32S 29°52' E 031°02'0 0.0
2017-Mar-27 10:32S 29°52' E 031°02'0 0.0
2017-Mar-27 09:32S 29°52' E 031°02'0 0.0
2017-Mar-27 08:32S 29°52' E 031°02'0 0.0
2017-Mar-27 07:32S 29°52' E 031°02'0 0.0
2017-Mar-27 06:32S 29°52' E 031°02'0 0.0
2017-Mar-27 05:32S 29°52' E 031°02'0 0.0
2017-Mar-27 04:32S 29°52' E 031°02'0 0.0
2017-Mar-27 03:32S 29°52' E 031°02'2 2.5
2017-Mar-27 02:33S 29°51' E 031°04'9 8.7
2017-Mar-27 01:33S 29°48' E 031°14'8 8.5
2017-Mar-27 00:33S 29°45' E 031°23'10 9.6
2017-Mar-26 23:33S 29°38' E 031°31'10 9.6
2017-Mar-26 22:33S 29°31' E 031°38'10 9.5
2017-Mar-26 21:33S 29°24' E 031°46'22 9.7
2017-Mar-26 19:19S 29°09' E 032°03'810.8
2017-Mar-26 18:33S 29°03' E 032°10'1110.5
2017-Mar-26 17:33S 28°55' E 032°19'14 0.3
2017-Mar-24 18:20S 28°42' E 032°24'1215.5
2017-Mar-24 17:33S 28°54' E 032°19'1515.1
2017-Mar-24 16:33S 29°05' E 032°08'3718.4
2017-Mar-24 14:33S 29°31' E 031°38'1918.7
2017-Mar-24 13:33S 29°44' E 031°23'1616.2
2017-Mar-24 12:33S 29°51' E 031°05'3 3.2
2017-Mar-24 11:33S 29°52' E 031°02'0 0.0
2017-Mar-24 10:33S 29°52' E 031°02'0 0.0
2017-Mar-24 08:30S 29°52' E 031°02'0 0.0
2017-Mar-24 07:33S 29°52' E 031°02'0 0.0
2017-Mar-24 06:30S 29°52' E 031°02'0 0.0
2017-Mar-24 05:33S 29°52' E 031°02'0 0.0
2017-Mar-24 04:33S 29°52' E 031°02'0 0.0
2017-Mar-24 03:27S 29°52' E 031°02'3 3.3
2017-Mar-24 02:33S 29°51' E 031°05'1211.7
2017-Mar-24 01:33S 29°47' E 031°18'1212.4
2017-Mar-24 00:33S 29°40' E 031°29'1615.6
2017-Mar-23 23:33S 29°29' E 031°42'1716.9
2017-Mar-23 22:33S 29°16' E 031°55'1918.7
2017-Mar-23 21:34S 29°03' E 032°10'  
2017-Mar-17 18:22S 28°45' E 032°23'1215.1
2017-Mar-17 17:33S 28°56' E 032°18'  

Dump ship's entire track history